Terminal Aerodrome Forecast
Issued by NWS

Home | Current Version | Previous Version | Text Only | Print | Product List | Glossary On
Versions: 1 2 3 4 5 6 7 8 9 10 11 12
000
FTUS45 KTFX 221700
TAFHLN
TAF
KHLN 221730Z 2218/2318 VRB05KT P6SM SCT070 SCT100
     FM222100 VRB05KT P6SM SCT080 BKN250
      TEMPO 2221/2301 VRB20G30KT -TSRA BKN080CB
     FM230200 VRB05KT P6SM BKN250
     FM231100 VRB05KT P6SM SCT060 BKN120 PROB30 2311/2314 -SHRA
      BKN060
     FM231600 VRB05KT P6SM SCT120=

USA.gov is the U.S. government's official web portal to all federal, state and local government web resources and services.